Time;durP1;ratioP1;P1;durP2;ratioP2;P2;SDS_P1;SDS_P2;PMS_P1;PMS_P2;Temp;Humidity;BMP_temperature;BMP_pressure;BME280_temperature;BME280_humidity;BME280_pressure;Samples;Min_cycle;Max_cycle;Signal;HPM_P1;HPM_P2
2022/03/28 11:35:53;;;;;;;17.70;10.05;;;17.90;99.90;;;;;;5090925;28;20537;-77
2022/03/28 11:38:21;;;;;;;19.67;11.18;;;15.80;99.90;;;;;;5090851;28;20174;-78
2022/03/28 11:40:47;;;;;;;22.95;12.90;;;15.90;99.90;;;;;;5090882;28;20170;-78
2022/03/28 11:43:13;;;;;;;23.02;13.40;;;15.90;99.90;;;;;;5090830;28;20168;-78
2022/03/28 11:45:49;;;;;;;19.63;13.20;;;15.80;99.90;;;;;;5090799;28;20167;-78
2022/03/28 11:48:17;;;;;;;18.70;11.77;;;16.00;99.90;;;;;;5090725;28;20517;-78
2022/03/28 11:50:43;;;;;;;17.10;11.23;;;16.00;99.90;;;;;;5090709;28;20168;-78
2022/03/28 11:53:14;;;;;;;20.23;11.57;;;16.00;99.90;;;;;;5090640;28;20656;-78
2022/03/28 11:55:50;;;;;;;18.65;12.93;;;16.00;99.90;;;;;;5089068;28;20276;-78
2022/03/28 11:58:16;;;;;;;19.42;12.35;;;16.10;99.90;;;;;;5090566;28;20163;-78
2022/03/28 12:00:48;;;;;;;19.77;10.75;;;16.10;99.90;;;;;;5090511;28;20560;-78
2022/03/28 12:03:15;;;;;;;16.73;8.88;;;16.30;99.90;;;;;;5090376;28;20172;-78
2022/03/28 12:05:46;;;;;;;20.60;8.20;;;16.30;99.90;;;;;;5090395;28;20317;-78
2022/03/28 12:08:17;;;;;;;15.10;9.27;;;16.60;99.90;;;;;;5090346;28;20168;-78
2022/03/28 12:10:52;;;;;;;21.23;11.80;;;16.60;99.90;;;;;;5089005;28;20256;-78
2022/03/28 12:13:22;;;;;;;16.02;9.68;;;16.70;99.90;;;;;;5090297;28;20166;-78
2022/03/28 12:15:53;;;;;;;16.20;9.07;;;16.70;99.90;;;;;;5090097;28;20219;-78
2022/03/28 12:18:21;;;;;;;19.92;11.15;;;16.70;99.90;;;;;;5090176;28;20515;-78
2022/03/28 12:20:49;;;;;;;18.50;10.50;;;16.80;99.90;;;;;;5089994;28;20184;-78
2022/03/28 12:23:17;;;;;;;13.75;9.20;;;16.80;99.90;;;;;;5090066;28;20526;-78
2022/03/28 12:25:44;;;;;;;16.88;10.23;;;16.80;99.90;;;;;;5090013;28;20160;-78
2022/03/28 12:28:34;;;;;;;20.08;10.20;;;16.80;99.90;;;;;;5089854;28;20633;-78
2022/03/28 12:31:03;;;;;;;13.45;8.30;;;16.90;99.90;;;;;;5089540;28;20676;-78
2022/03/28 12:33:30;;;;;;;14.93;8.48;;;17.10;99.90;;;;;;5089623;28;20172;-77
2022/03/28 12:36:02;;;;;;;22.10;10.98;;;17.10;99.90;;;;;;5089805;28;20719;-78
2022/03/28 12:39:07;;;;;;;16.63;10.85;;;17.20;99.90;;;;;;5089746;28;20170;-78
2022/03/28 12:41:44;;;;;;;15.43;10.20;;;17.20;99.90;;;;;;5089416;28;20684;-78
2022/03/28 12:44:14;;;;;;;13.93;9.07;;;17.30;99.90;;;;;;5089667;28;20171;-78
2022/03/28 12:46:42;;;;;;;18.35;9.75;;;17.40;99.90;;;;;;5079317;28;20313;-78
2022/03/28 12:49:13;;;;;;;21.30;11.43;;;17.40;99.90;;;;;;5076024;28;20200;-78
2022/03/28 12:51:40;;;;;;;15.60;10.88;;;17.50;99.90;;;;;;5076050;28;20172;-78
2022/03/28 12:54:19;;;;;;;18.70;12.63;;;17.60;99.90;;;;;;5075991;28;20187;-78
2022/03/28 12:56:59;;;;;;;19.55;12.68;;;17.70;99.90;;;;;;5075943;28;20168;-78
2022/03/28 12:59:27;;;;;;;18.05;13.52;;;17.80;99.90;;;;;;5075901;28;20231;-78
2022/03/28 13:02:06;;;;;;;23.75;11.57;;;17.90;99.90;;;;;;5075830;28;20176;-78
2022/03/28 13:04:42;;;;;;;19.85;11.45;;;17.90;99.90;;;;;;5075857;28;20170;-78
2022/03/28 13:07:07;;;;;;;18.08;11.27;;;17.80;99.90;;;;;;5075828;28;20734;-78
2022/03/28 13:09:35;;;;;;;13.38;9.00;;;17.70;99.90;;;;;;5075740;28;20259;-78
2022/03/28 13:12:09;;;;;;;13.88;8.98;;;17.70;99.90;;;;;;5075649;28;20221;-78
2022/03/28 13:14:35;;;;;;;12.93;8.57;;;17.70;99.90;;;;;;5075429;28;20269;-78
2022/03/28 13:17:12;;;;;;;13.20;9.07;;;17.80;99.90;;;;;;5075596;28;20528;-78
2022/03/28 13:19:39;;;;;;;14.82;9.75;;;17.90;99.90;;;;;;5075510;28;20192;-78
2022/03/28 13:22:07;;;;;;;16.40;9.68;;;17.90;99.90;;;;;;5075429;28;20169;-78
2022/03/28 13:24:34;;;;;;;17.08;10.85;;;18.00;99.90;;;;;;5075417;28;20171;-78
2022/03/28 13:29:50;;;;;;;18.75;10.95;;;17.90;99.90;;;;;;5075678;28;20171;-78
2022/03/28 13:32:16;;;;;;;19.80;10.02;;;17.90;99.90;;;;;;5075270;28;20171;-78
2022/03/28 13:34:41;;;;;;;15.13;10.02;;;18.00;99.90;;;;;;5075088;28;20650;-78
2022/03/28 13:37:07;;;;;;;16.90;10.48;;;18.10;99.90;;;;;;5075153;28;20164;-78
2022/03/28 13:39:33;;;;;;;17.77;10.38;;;18.10;99.90;;;;;;5075298;28;20229;-78
2022/03/28 13:41:59;;;;;;;16.98;11.60;;;18.20;99.90;;;;;;5073805;28;20175;-78
2022/03/28 13:44:25;;;;;;;22.15;13.40;;;18.20;99.90;;;;;;5075044;28;20168;-78
2022/03/28 13:46:51;;;;;;;20.63;12.00;;;18.20;99.90;;;;;;5075043;28;20168;-78
2022/03/28 13:49:17;;;;;;;19.42;12.18;;;18.10;99.90;;;;;;5073799;28;20164;-78
2022/03/28 13:51:43;;;;;;;28.83;12.88;;;18.20;99.90;;;;;;5074975;28;20172;-78
2022/03/28 13:54:10;;;;;;;21.35;12.05;;;18.30;99.90;;;;;;5074876;28;20196;-78
2022/03/28 13:56:37;;;;;;;18.48;10.63;;;18.50;99.90;;;;;;5074825;28;20164;-78
2022/03/28 13:59:04;;;;;;;16.23;11.27;;;18.60;99.90;;;;;;5074103;28;20167;-78
2022/03/28 14:01:30;;;;;;;18.33;11.98;;;18.60;99.90;;;;;;5074811;28;20168;-78
2022/03/28 14:03:59;;;;;;;15.07;10.68;;;18.40;99.90;;;;;;5074692;28;20166;-78
2022/03/28 14:06:26;;;;;;;17.15;11.13;;;18.40;99.90;;;;;;5074542;28;20176;-77
2022/03/28 14:08:52;;;;;;;17.55;11.55;;;18.20;99.90;;;;;;5074617;28;20253;-78
2022/03/28 14:11:20;;;;;;;18.02;11.32;;;18.20;99.90;;;;;;5074461;28;20178;-78
2022/03/28 14:13:46;;;;;;;21.45;10.30;;;18.20;99.90;;;;;;5073243;28;20234;-78
2022/03/28 14:16:12;;;;;;;22.65;12.93;;;18.30;99.90;;;;;;5074357;28;20168;-80
2022/03/28 14:18:38;;;;;;;23.35;13.05;;;18.40;99.90;;;;;;5074185;28;20164;-80
2022/03/28 14:21:04;;;;;;;17.27;10.43;;;18.40;99.90;;;;;;5074181;28;20184;-78
2022/03/28 14:23:32;;;;;;;15.90;10.55;;;18.40;99.90;;;;;;5074235;28;20160;-78
2022/03/28 14:26:01;;;;;;;18.17;11.38;;;18.50;99.90;;;;;;5074211;28;20240;-78
2022/03/28 14:28:27;;;;;;;17.88;10.98;;;18.40;99.90;;;;;;5074152;28;20187;-78
2022/03/28 14:30:53;;;;;;;15.43;10.65;;;18.50;99.90;;;;;;5074056;28;20202;-78
2022/03/28 14:33:18;;;;;;;22.73;12.48;;;18.60;99.90;;;;;;5074033;28;20164;-78
2022/03/28 14:35:44;;;;;;;15.05;10.57;;;18.70;99.90;;;;;;5073781;28;20227;-78
2022/03/28 14:38:09;;;;;;;16.92;10.55;;;18.70;99.90;;;;;;5073966;28;20260;-78
2022/03/28 14:40:35;;;;;;;21.70;11.98;;;18.80;99.90;;;;;;5073884;28;20179;-78
2022/03/28 14:43:01;;;;;;;19.67;12.10;;;18.80;99.90;;;;;;5073859;28;20164;-78
2022/03/28 14:45:28;;;;;;;22.15;12.52;;;19.00;99.90;;;;;;5073857;28;20255;-78
2022/03/28 14:47:54;;;;;;;18.23;12.48;;;19.10;99.90;;;;;;5073762;28;20167;-78
2022/03/28 14:50:20;;;;;;;27.05;15.60;;;19.30;99.90;;;;;;5074003;28;20179;-78
2022/03/28 14:52:45;;;;;;;22.00;13.88;;;19.20;99.90;;;;;;5073713;28;20241;-78
2022/03/28 14:55:13;;;;;;;24.98;15.75;;;19.10;99.90;;;;;;5073586;28;20195;-78
2022/03/28 14:57:39;;;;;;;24.17;14.70;;;19.00;99.90;;;;;;5073579;28;20160;-78
2022/03/28 15:00:07;;;;;;;22.00;13.20;;;18.80;99.90;;;;;;5073622;28;20625;-78
2022/03/28 15:02:34;;;;;;;23.88;13.77;;;18.60;99.90;;;;;;5073476;28;20176;-78
2022/03/28 15:04:59;;;;;;;24.88;13.85;;;18.40;99.90;;;;;;5072335;28;20206;-78
2022/03/28 15:07:25;;;;;;;25.23;14.38;;;18.30;99.90;;;;;;5073527;28;20199;-78
2022/03/28 15:09:52;;;;;;;28.65;13.02;;;18.30;99.90;;;;;;5073289;28;20646;-78
2022/03/28 15:12:18;;;;;;;23.73;14.88;;;18.30;99.90;;;;;;5073414;28;20246;-78
2022/03/28 15:14:45;;;;;;;28.52;14.30;;;18.30;99.90;;;;;;5073319;28;20672;-78
2022/03/28 15:17:11;;;;;;;18.88;12.82;;;18.30;99.90;;;;;;5073444;28;20210;-79
2022/03/28 15:19:37;;;;;;;24.60;14.07;;;18.50;99.90;;;;;;5073319;28;20171;-78
2022/03/28 15:22:05;;;;;;;21.98;14.55;;;18.50;99.90;;;;;;5073356;28;20567;-78
2022/03/28 15:24:31;;;;;;;23.55;15.18;;;18.50;99.90;;;;;;5073459;28;20172;-78
2022/03/28 15:26:57;;;;;;;24.25;14.82;;;18.60;99.90;;;;;;5073310;28;20630;-78
2022/03/28 15:29:23;;;;;;;26.50;14.80;;;18.60;99.90;;;;;;5073286;28;20255;-78
2022/03/28 15:31:49;;;;;;;26.88;15.65;;;18.50;99.90;;;;;;5071794;28;20175;-78
2022/03/28 15:34:16;;;;;;;25.15;16.05;;;18.40;99.90;;;;;;5072952;28;20215;-78
2022/03/28 15:36:47;;;;;;;31.08;17.00;;;18.30;99.90;;;;;;5073239;28;20168;-78
2022/03/28 15:39:16;;;;;;;26.63;17.15;;;18.20;99.90;;;;;;5073156;28;20164;-78
2022/03/28 15:41:43;;;;;;;29.05;17.30;;;18.30;99.90;;;;;;5073108;28;20195;-78
2022/03/28 15:44:10;;;;;;;30.10;17.50;;;18.30;99.90;;;;;;5073092;28;20300;-78
2022/03/28 15:46:37;;;;;;;29.35;16.80;;;18.20;99.90;;;;;;5073087;28;20171;-78
2022/03/28 15:49:03;;;;;;;27.17;17.02;;;18.30;99.90;;;;;;5073106;28;20178;-78
2022/03/28 15:51:29;;;;;;;29.23;17.23;;;18.30;99.90;;;;;;5073119;28;20637;-78
2022/03/28 15:53:55;;;;;;;35.58;17.92;;;18.20;99.90;;;;;;5073015;28;20199;-78
2022/03/28 15:56:22;;;;;;;32.50;17.48;;;18.10;99.90;;;;;;5073007;28;20564;-78
2022/03/28 15:58:49;;;;;;;36.90;18.08;;;17.80;99.90;;;;;;5073047;28;20170;-78
2022/03/28 16:03:59;;;;;;;30.42;18.15;;;17.60;99.90;;;;;;5072989;28;20187;-78
2022/03/28 16:06:29;;;;;;;34.83;18.40;;;17.50;99.90;;;;;;5071637;28;20535;-77
2022/03/28 16:08:55;;;;;;;31.02;18.25;;;17.30;99.90;;;;;;5072894;28;20169;-78
2022/03/28 16:11:21;;;;;;;32.58;19.02;;;17.20;99.90;;;;;;5072918;28;20169;-78
2022/03/28 16:13:46;;;;;;;35.40;18.40;;;17.20;99.90;;;;;;5072863;28;20160;-78
2022/03/28 16:16:12;;;;;;;32.85;17.95;;;17.20;99.90;;;;;;5072874;28;20172;-78
2022/03/28 16:18:37;;;;;;;34.45;18.30;;;17.10;99.90;;;;;;5072816;28;20164;-78
2022/03/28 16:21:04;;;;;;;33.60;17.67;;;16.90;99.90;;;;;;5073887;28;20180;-78
2022/03/28 16:23:30;;;;;;;31.92;19.10;;;16.80;99.90;;;;;;5075173;28;20191;-77
2022/03/28 16:25:56;;;;;;;32.90;18.67;;;16.80;99.90;;;;;;5075178;28;20177;-77
2022/03/28 16:28:23;;;;;;;30.40;17.45;;;16.70;99.90;;;;;;5076430;28;20168;-77
2022/03/28 16:30:49;;;;;;;35.35;18.85;;;16.60;99.90;;;;;;5076440;28;20164;-77
2022/03/28 16:33:15;;;;;;;35.03;20.05;;;16.60;99.90;;;;;;5076372;28;20164;-77
2022/03/28 16:35:46;;;;;;;30.95;18.55;;;16.40;99.90;;;;;;5076017;28;20227;-77
2022/03/28 16:38:15;;;;;;;38.40;20.17;;;16.30;99.90;;;;;;5076144;28;20168;-77
2022/03/28 16:40:42;;;;;;;40.15;19.27;;;16.30;99.90;;;;;;5076194;28;20176;-77
2022/03/28 16:43:08;;;;;;;35.63;19.60;;;16.20;99.90;;;;;;5075001;28;20621;-77
2022/03/28 16:45:34;;;;;;;35.83;19.92;;;16.10;99.90;;;;;;5076187;28;20647;-77
2022/03/28 16:48:00;;;;;;;33.65;19.88;;;16.00;99.90;;;;;;5076121;28;20638;-77
2022/03/28 16:50:26;;;;;;;39.83;20.83;;;16.00;99.90;;;;;;5076093;28;20183;-77
2022/03/28 16:52:52;;;;;;;37.33;19.35;;;16.00;99.90;;;;;;5074718;28;20637;-77
2022/03/28 16:55:18;;;;;;;38.20;20.30;;;15.90;99.90;;;;;;5075937;28;20246;-77
2022/03/28 16:57:45;;;;;;;36.83;20.15;;;15.90;99.90;;;;;;5075962;28;20253;-77
2022/03/28 17:00:11;;;;;;;32.55;18.63;;;15.90;99.90;;;;;;5075914;28;20175;-77
2022/03/28 17:02:37;;;;;;;35.63;18.92;;;15.70;99.90;;;;;;5075726;28;20179;-77
2022/03/28 17:05:04;;;;;;;40.15;19.27;;;15.70;99.90;;;;;;5075780;28;20218;-77
2022/03/28 17:07:30;;;;;;;41.88;20.77;;;15.60;99.90;;;;;;5075733;28;20222;-77
2022/03/28 17:09:55;;;;;;;41.53;20.55;;;15.50;99.90;;;;;;5075727;28;20160;-77
2022/03/28 17:12:21;;;;;;;34.55;18.75;;;15.40;99.90;;;;;;5075667;28;20172;-77
2022/03/28 17:14:49;;;;;;;34.92;18.10;;;15.20;99.90;;;;;;5075542;28;20188;-77
2022/03/28 17:17:15;;;;;;;37.13;19.20;;;15.20;99.90;;;;;;5075576;28;20567;-77
2022/03/28 17:19:41;;;;;;;38.97;18.40;;;15.10;99.90;;;;;;5075513;28;20192;-77
2022/03/28 17:22:07;;;;;;;39.65;19.92;;;15.00;99.90;;;;;;5075408;28;20529;-77
2022/03/28 17:24:33;;;;;;;39.03;19.58;;;15.00;99.90;;;;;;5075488;28;20168;-77
2022/03/28 17:26:59;;;;;;;41.30;19.25;;;14.90;99.90;;;;;;5075431;28;20172;-77
2022/03/28 17:29:24;;;;;;;37.70;18.52;;;14.80;99.90;;;;;;5075376;28;20177;-77
2022/03/28 17:31:51;;;;;;;36.90;20.05;;;14.70;99.90;;;;;;5075211;28;20255;-77
2022/03/28 17:34:18;;;;;;;39.42;18.65;;;14.60;99.90;;;;;;5074940;28;20361;-77
2022/03/28 17:36:44;;;;;;;33.30;18.17;;;14.50;99.90;;;;;;5075270;28;20584;-77
2022/03/28 17:39:11;;;;;;;31.30;17.90;;;14.40;99.90;;;;;;5075193;28;20247;-77
2022/03/28 17:41:39;;;;;;;33.42;18.13;;;14.30;99.90;;;;;;5075159;28;20701;-77
2022/03/28 17:44:06;;;;;;;34.45;19.33;;;14.20;99.90;;;;;;5075440;28;20230;-77
2022/03/28 17:46:32;;;;;;;38.10;18.00;;;14.00;99.90;;;;;;5074979;28;20584;-77
